Time;durP1;ratioP1;P1;durP2;ratioP2;P2;SDS_P1;SDS_P2;PMS_P1;PMS_P2;Temp;Humidity;BMP_temperature;BMP_pressure;BME280_temperature;BME280_humidity;BME280_pressure;Samples;Min_cycle;Max_cycle;Signal;HPM_P1;HPM_P2
2021/06/16 00:00:13;;;;;;;13.25;8.02;;;11.80;99.90;;;;;;5091710;28;20455;-75
2021/06/16 00:02:40;;;;;;;8.65;6.78;;;11.80;99.90;;;;;;5072869;28;20071;-73
2021/06/16 00:05:11;;;;;;;9.88;7.22;;;11.80;99.90;;;;;;5091828;28;20552;-74
2021/06/16 00:07:37;;;;;;;15.98;7.38;;;11.80;99.90;;;;;;5090834;28;20040;-77
2021/06/16 00:10:05;;;;;;;12.85;6.65;;;11.80;99.90;;;;;;5090379;28;20036;-75
2021/06/16 00:12:30;;;;;;;11.05;7.05;;;11.70;99.90;;;;;;5073474;28;20392;-77
2021/06/16 00:14:56;;;;;;;14.45;6.40;;;11.80;99.90;;;;;;5091393;28;20040;-73
2021/06/16 00:17:22;;;;;;;12.98;8.15;;;11.80;99.90;;;;;;5054166;28;20037;-73
2021/06/16 00:19:48;;;;;;;13.02;7.97;;;11.80;99.90;;;;;;5084196;28;20039;-77
2021/06/16 00:22:15;;;;;;;15.15;8.27;;;12.10;99.90;;;;;;5090670;28;20089;-75
2021/06/16 00:24:40;;;;;;;14.85;8.85;;;11.80;99.90;;;;;;5090616;28;20503;-77
2021/06/16 00:27:06;;;;;;;12.23;8.50;;;11.80;99.90;;;;;;5076680;28;20157;-74
2021/06/16 00:29:32;;;;;;;;;;;11.80;99.90;;;;;;5091115;28;20111;-75
2021/06/16 00:31:58;;;;;;;13.38;7.82;;;11.70;99.90;;;;;;5089025;28;20018;-74
2021/06/16 00:34:24;;;;;;;13.18;8.02;;;11.80;99.90;;;;;;5053246;28;20056;-76
2021/06/16 00:36:50;;;;;;;;;;;11.70;99.90;;;;;;5072468;28;20040;-74
2021/06/16 00:39:16;;;;;;;14.77;7.77;;;11.70;99.90;;;;;;5072501;28;19920;-75
2021/06/16 00:41:44;;;;;;;11.55;7.57;;;11.70;99.90;;;;;;5089059;28;20044;-74
2021/06/16 00:44:10;;;;;;;15.15;8.55;;;11.70;99.90;;;;;;5090404;28;20094;-73
2021/06/16 00:46:36;;;;;;;12.20;7.82;;;11.70;99.90;;;;;;5091388;28;20032;-74
2021/06/16 00:49:02;;;;;;;;;;;11.60;99.90;;;;;;5090433;28;20043;-74
2021/06/16 00:51:28;;;;;;;9.40;7.60;;;11.60;99.90;;;;;;5090080;28;19989;-73
2021/06/16 00:53:54;;;;;;;14.77;8.02;;;11.50;99.90;;;;;;5090164;28;20040;-74
2021/06/16 00:56:20;;;;;;;11.60;7.65;;;11.50;99.90;;;;;;5051450;28;20041;-74
2021/06/16 00:58:46;;;;;;;10.82;7.10;;;11.50;99.90;;;;;;5054007;28;20115;-77
2021/06/16 01:01:14;;;;;;;15.70;8.23;;;11.40;99.90;;;;;;5090748;28;20036;-74
2021/06/16 01:04:13;;;;;;;12.57;7.68;;;11.40;99.90;;;;;;5090545;28;20093;-75
2021/06/16 01:06:43;;;;;;;14.15;7.07;;;11.40;99.90;;;;;;5083989;28;20047;-76
2021/06/16 01:09:19;;;;;;;11.98;6.95;;;11.30;99.90;;;;;;5090664;28;20040;-75
2021/06/16 01:11:57;;;;;;;8.80;6.65;;;11.30;99.90;;;;;;5088899;28;20039;-75
2021/06/16 01:14:49;;;;;;;12.02;6.82;;;11.30;99.90;;;;;;5078139;28;20043;-75
2021/06/16 01:17:21;;;;;;;15.55;6.82;;;11.20;99.90;;;;;;5089801;28;20044;-74
2021/06/16 01:19:59;;;;;;;10.27;5.80;;;11.20;99.90;;;;;;5089881;28;20036;-74
2021/06/16 01:22:49;;;;;;;14.88;6.88;;;11.20;99.90;;;;;;5080673;28;20036;-74
2021/06/16 01:25:39;;;;;;;12.90;6.78;;;11.30;99.90;;;;;;5070114;28;20123;-77
2021/06/16 01:28:07;;;;;;;10.35;6.13;;;11.20;99.90;;;;;;5089399;28;20047;-74
2021/06/16 01:30:34;;;;;;;11.23;6.43;;;11.20;99.90;;;;;;5090730;28;20051;-74
2021/06/16 01:33:01;;;;;;;13.73;6.28;;;11.20;99.90;;;;;;5081808;28;20100;-73
2021/06/16 01:35:31;;;;;;;12.45;6.35;;;11.20;99.90;;;;;;5090438;28;20078;-75
2021/06/16 01:37:59;;;;;;;11.30;5.88;;;11.20;99.90;;;;;;5089707;28;20036;-73
2021/06/16 01:40:27;;;;;;;11.57;5.65;;;11.20;99.90;;;;;;5088933;28;20060;-73
2021/06/16 01:42:55;;;;;;;10.52;6.15;;;11.20;99.90;;;;;;5089630;28;20074;-73
2021/06/16 01:45:22;;;;;;;8.63;6.25;;;11.10;99.90;;;;;;5090643;28;20086;-73
2021/06/16 01:47:50;;;;;;;11.25;5.95;;;11.10;99.90;;;;;;5089760;28;20038;-73
2021/06/16 01:50:19;;;;;;;11.30;6.68;;;11.10;99.90;;;;;;5090712;28;20028;-73
2021/06/16 01:52:50;;;;;;;10.00;6.53;;;11.00;99.90;;;;;;5090583;28;20066;-71
2021/06/16 01:55:16;;;;;;;12.43;6.47;;;11.00;99.90;;;;;;5058957;28;20044;-76
2021/06/16 01:57:44;;;;;;;13.40;6.75;;;11.00;99.90;;;;;;5088130;28;20483;-75
2021/06/16 02:00:10;;;;;;;11.35;6.45;;;10.90;99.90;;;;;;5089701;28;20561;-73
2021/06/16 02:02:37;;;;;;;10.27;6.65;;;10.90;99.90;;;;;;5053519;28;20037;-75
2021/06/16 02:05:06;;;;;;;14.48;6.43;;;10.90;99.90;;;;;;5071311;28;20036;-75
2021/06/16 02:07:38;;;;;;;12.88;6.40;;;10.90;99.90;;;;;;5093890;28;20043;-75
2021/06/16 02:10:06;;;;;;;10.50;6.00;;;10.90;99.90;;;;;;5092398;28;20477;-75
2021/06/16 02:12:33;;;;;;;13.98;6.57;;;10.80;99.90;;;;;;5068395;28;20048;-76
2021/06/16 02:15:07;;;;;;;13.52;6.68;;;10.80;99.90;;;;;;5086850;28;20480;-74
2021/06/16 02:17:36;;;;;;;11.88;6.85;;;10.80;99.90;;;;;;5094034;28;20122;-75
2021/06/16 02:20:06;;;;;;;10.02;6.43;;;10.80;99.90;;;;;;5092404;28;20061;-74
2021/06/16 02:22:33;;;;;;;14.38;6.70;;;10.80;99.90;;;;;;5093975;28;20032;-74
2021/06/16 02:24:59;;;;;;;13.50;6.68;;;10.80;99.90;;;;;;5091129;28;20028;-74
2021/06/16 02:27:25;;;;;;;13.52;5.82;;;10.80;99.90;;;;;;5093529;28;20040;-75
2021/06/16 02:29:50;;;;;;;10.73;6.60;;;10.70;99.90;;;;;;5092790;28;20043;-73
2021/06/16 02:32:16;;;;;;;11.40;6.75;;;10.70;99.90;;;;;;5065586;28;20071;-73
2021/06/16 02:34:42;;;;;;;9.27;6.63;;;10.70;99.90;;;;;;5088546;28;20098;-73
2021/06/16 02:37:13;;;;;;;8.90;6.05;;;10.70;99.90;;;;;;5092383;28;20495;-73
2021/06/16 02:39:52;;;;;;;9.15;5.45;;;10.70;99.90;;;;;;5092922;28;20058;-76
2021/06/16 02:42:19;;;;;;;14.32;6.90;;;10.70;99.90;;;;;;5092557;28;20101;-72
2021/06/16 02:44:47;;;;;;;14.82;6.55;;;10.70;99.90;;;;;;5092886;28;20043;-73
2021/06/16 02:47:15;;;;;;;14.10;6.75;;;10.70;99.90;;;;;;5093413;28;20040;-73
2021/06/16 02:49:45;;;;;;;9.35;5.78;;;10.70;99.90;;;;;;5093227;28;20115;-75
2021/06/16 02:52:14;;;;;;;11.27;5.72;;;10.70;99.90;;;;;;5093223;28;20423;-74
2021/06/16 02:54:43;;;;;;;11.15;6.45;;;10.70;99.90;;;;;;5093097;28;20036;-75
2021/06/16 02:57:11;;;;;;;9.98;6.20;;;10.70;99.90;;;;;;5091885;28;20494;-73
2021/06/16 02:59:38;;;;;;;8.88;5.75;;;10.70;99.90;;;;;;5056773;28;20037;-72
2021/06/16 03:02:05;;;;;;;10.43;6.30;;;10.70;99.90;;;;;;5071032;28;20048;-77
2021/06/16 03:04:30;;;;;;;8.40;5.72;;;10.70;99.90;;;;;;5092680;28;20476;-73
2021/06/16 03:06:58;;;;;;;12.32;6.97;;;10.70;99.90;;;;;;5091273;28;20060;-73
2021/06/16 03:09:25;;;;;;;11.50;6.82;;;10.70;99.90;;;;;;5092099;28;20059;-73
2021/06/16 03:11:51;;;;;;;11.10;6.47;;;10.70;99.90;;;;;;5091011;28;20052;-75
2021/06/16 03:14:24;;;;;;;10.90;6.65;;;10.60;99.90;;;;;;5092193;28;20036;-76
2021/06/16 03:16:54;;;;;;;10.00;6.43;;;10.70;99.90;;;;;;5092631;28;20036;-72
2021/06/16 03:19:23;;;;;;;11.25;6.18;;;10.70;99.90;;;;;;5092510;28;20221;-76
2021/06/16 03:21:50;;;;;;;13.05;6.80;;;10.80;99.90;;;;;;5093301;28;20044;-73
2021/06/16 03:24:21;;;;;;;10.40;6.22;;;10.70;99.90;;;;;;5058278;28;20161;-71
2021/06/16 03:26:48;;;;;;;8.90;6.18;;;10.70;99.90;;;;;;5077467;28;20040;-75
2021/06/16 03:29:15;;;;;;;12.43;7.13;;;10.70;99.90;;;;;;5091369;28;20177;-76
2021/06/16 03:31:42;;;;;;;14.20;7.20;;;10.70;99.90;;;;;;5092208;28;20044;-73
2021/06/16 03:34:09;;;;;;;13.75;6.70;;;10.70;99.90;;;;;;5083206;28;20040;-72
2021/06/16 03:36:37;;;;;;;14.80;7.18;;;10.80;99.90;;;;;;5091799;28;20043;-73
2021/06/16 03:39:05;;;;;;;12.77;7.22;;;10.80;99.90;;;;;;5091424;28;20040;-75
2021/06/16 03:41:32;;;;;;;13.93;7.45;;;10.80;99.90;;;;;;5091141;28;20063;-74
2021/06/16 03:44:00;;;;;;;11.77;6.90;;;10.80;99.90;;;;;;5091636;28;20062;-75
2021/06/16 03:46:28;;;;;;;15.60;7.60;;;10.80;99.90;;;;;;5091903;28;20036;-75
2021/06/16 03:48:55;;;;;;;14.10;7.40;;;10.80;99.90;;;;;;5091014;28;20040;-73
2021/06/16 03:51:21;;;;;;;15.18;6.97;;;10.90;99.90;;;;;;5091482;28;20508;-75
2021/06/16 03:53:49;;;;;;;12.68;7.47;;;10.90;99.90;;;;;;5091892;28;20040;-75
2021/06/16 03:56:15;;;;;;;11.52;7.22;;;11.00;99.90;;;;;;5090500;28;20062;-73
2021/06/16 03:58:42;;;;;;;12.52;7.07;;;11.00;99.90;;;;;;5062147;28;20070;-73
2021/06/16 04:01:13;;;;;;;13.38;7.40;;;11.00;99.90;;;;;;5090734;28;20036;-77
2021/06/16 04:03:39;;;;;;;12.40;8.13;;;11.10;99.90;;;;;;5091645;28;20052;-76
2021/06/16 04:06:07;;;;;;;11.57;7.53;;;11.20;99.90;;;;;;5091001;28;20491;-76
2021/06/16 04:08:35;;;;;;;11.50;7.07;;;11.30;99.90;;;;;;5091480;28;20040;-74
2021/06/16 04:11:01;;;;;;;13.57;7.50;;;11.30;99.90;;;;;;5089756;28;20054;-73
2021/06/16 04:13:27;;;;;;;;;;;11.40;99.90;;;;;;5091751;28;20424;-73
2021/06/16 04:15:53;;;;;;;11.10;7.53;;;11.40;99.90;;;;;;5073125;28;19964;-75
2021/06/16 04:18:19;;;;;;;15.25;6.97;;;11.50;99.90;;;;;;5091849;28;20043;-77
2021/06/16 04:20:44;;;;;;;14.77;7.28;;;11.50;99.90;;;;;;5094735;28;20392;-74
2021/06/16 04:23:10;;;;;;;11.90;6.78;;;11.60;99.90;;;;;;5091827;28;20090;-75
2021/06/16 04:25:36;;;;;;;13.85;6.53;;;11.60;99.90;;;;;;5083580;28;20040;-75
2021/06/16 04:28:02;;;;;;;12.20;6.93;;;11.70;99.90;;;;;;5085061;28;20468;-75
2021/06/16 04:30:28;;;;;;;11.85;7.00;;;11.80;99.90;;;;;;5091345;28;20082;-73
2021/06/16 04:32:54;;;;;;;;;;;11.80;99.90;;;;;;5083639;28;20473;-75
2021/06/16 04:35:20;;;;;;;13.43;7.15;;;11.90;99.90;;;;;;5091590;28;19924;-76
2021/06/16 04:37:47;;;;;;;14.48;7.40;;;11.90;99.90;;;;;;5091506;28;20058;-77
2021/06/16 04:40:13;;;;;;;13.52;7.22;;;12.00;99.90;;;;;;5089372;28;20036;-74
2021/06/16 04:42:40;;;;;;;17.20;8.15;;;12.10;99.90;;;;;;5090890;28;20040;-74
2021/06/16 04:45:07;;;;;;;12.00;7.90;;;12.20;99.90;;;;;;5064078;28;20044;-74
2021/06/16 04:47:34;;;;;;;12.05;7.85;;;12.30;99.90;;;;;;5085618;28;20104;-75
2021/06/16 04:50:00;;;;;;;11.63;7.20;;;12.50;99.90;;;;;;5090294;28;20036;-76
2021/06/16 04:52:26;;;;;;;12.60;7.53;;;12.60;99.90;;;;;;5059666;28;20040;-72
2021/06/16 04:54:52;;;;;;;10.82;6.40;;;12.60;99.90;;;;;;5090622;28;20503;-72
2021/06/16 04:57:18;;;;;;;;;;;12.80;99.90;;;;;;5090819;28;20418;-72
2021/06/16 04:59:43;;;;;;;12.50;7.35;;;12.90;99.90;;;;;;5091340;28;19920;-75
2021/06/16 05:02:09;;;;;;;11.82;7.63;;;12.90;99.90;;;;;;5090089;28;20047;-74
2021/06/16 05:04:35;;;;;;;13.77;7.82;;;13.00;99.90;;;;;;5090458;28;20036;-76
2021/06/16 05:07:01;;;;;;;11.52;7.13;;;13.10;99.90;;;;;;5089768;28;20420;-73
2021/06/16 05:09:27;;;;;;;11.13;7.40;;;13.20;99.90;;;;;;5090580;28;20040;-75
2021/06/16 05:11:53;;;;;;;14.30;7.22;;;13.30;99.90;;;;;;5089679;28;20054;-76
2021/06/16 05:14:19;;;;;;;10.82;7.63;;;13.40;99.90;;;;;;5072310;28;20036;-76
2021/06/16 05:16:45;;;;;;;13.23;8.13;;;13.50;99.90;;;;;;5059060;28;20029;-73
2021/06/16 05:19:20;;;;;;;;;;;13.50;99.90;;;;;;5090164;28;20051;-76
2021/06/16 05:21:46;;;;;;;9.50;6.78;;;13.60;99.90;;;;;;5057540;28;20348;-74
2021/06/16 05:24:12;;;;;;;11.40;7.03;;;13.70;99.90;;;;;;5089540;28;20036;-76
2021/06/16 05:26:38;;;;;;;13.45;7.32;;;13.70;99.90;;;;;;5069788;28;20409;-77
2021/06/16 05:29:08;;;;;;;12.43;7.45;;;13.80;99.90;;;;;;5090511;28;20156;-73
2021/06/16 05:31:34;;;;;;;11.82;7.68;;;13.90;99.90;;;;;;5090750;28;20036;-76
2021/06/16 05:34:00;;;;;;;;;;;14.10;99.90;;;;;;5082766;28;20502;-73
2021/06/16 05:36:26;;;;;;;11.25;7.30;;;14.20;99.90;;;;;;5090315;28;19927;-74
2021/06/16 05:38:52;;;;;;;;;;;14.20;99.90;;;;;;5094865;28;20037;-74
2021/06/16 05:41:18;;;;;;;14.35;7.18;;;14.30;99.90;;;;;;5092925;28;20438;-73
2021/06/16 05:43:44;;;;;;;12.95;6.68;;;14.40;99.90;;;;;;5094984;28;20036;-72
2021/06/16 05:46:11;;;;;;;11.60;7.03;;;14.50;99.90;;;;;;5093888;28;20044;-75
2021/06/16 05:48:37;;;;;;;12.13;7.38;;;14.60;99.90;;;;;;5076718;28;20495;-74
2021/06/16 05:51:03;;;;;;;8.70;6.45;;;14.70;99.90;;;;;;5093772;28;20103;-73
2021/06/16 05:53:29;;;;;;;12.55;7.25;;;14.80;99.90;;;;;;5049617;28;20116;-74
2021/06/16 05:55:55;;;;;;;10.85;6.63;;;14.90;99.90;;;;;;5090589;28;20472;-75
2021/06/16 05:58:21;;;;;;;;;;;15.00;99.90;;;;;;5094542;28;20040;-74
2021/06/16 06:00:47;;;;;;;11.85;6.47;;;15.10;99.90;;;;;;5094067;28;19966;-72
2021/06/16 06:03:12;;;;;;;;;;;15.20;99.90;;;;;;5094117;28;20040;-76
2021/06/16 06:05:38;;;;;;;10.32;6.28;;;15.30;99.90;;;;;;5094046;28;19923;-75
2021/06/16 06:08:05;;;;;;;12.27;6.55;;;15.40;99.90;;;;;;5094396;28;20452;-72
2021/06/16 06:10:35;;;;;;;12.15;6.68;;;15.50;99.90;;;;;;5061624;28;20078;-75
2021/06/16 06:13:00;;;;;;;11.05;7.07;;;15.60;99.90;;;;;;5065925;28;20068;-76
2021/06/16 06:15:26;;;;;;;;;;;15.70;99.90;;;;;;5091000;28;20039;-76
2021/06/16 06:17:53;;;;;;;10.95;6.60;;;15.80;99.90;;;;;;5065607;28;19916;-75
2021/06/16 06:20:19;;;;;;;9.05;5.90;;;15.90;99.90;;;;;;5090103;28;20555;-77
2021/06/16 06:22:45;;;;;;;14.05;6.55;;;16.00;99.90;;;;;;5099698;28;20071;-75
2021/06/16 06:25:12;;;;;;;11.27;7.18;;;16.10;99.90;;;;;;5089182;28;20071;-76
2021/06/16 06:27:39;;;;;;;15.35;6.38;;;16.20;99.90;;;;;;5084924;28;20393;-73
2021/06/16 06:30:06;;;;;;;18.10;6.82;;;16.40;99.90;;;;;;5093117;28;20059;-72
2021/06/16 06:32:32;;;;;;;11.48;6.20;;;16.40;99.90;;;;;;5093363;28;20048;-75
2021/06/16 06:34:58;;;;;;;11.93;6.43;;;16.60;99.90;;;;;;5093659;28;20043;-73
2021/06/16 06:37:24;;;;;;;;;;;16.60;99.90;;;;;;5094271;28;20485;-75
2021/06/16 06:39:50;;;;;;;12.13;6.70;;;16.70;99.90;;;;;;5097827;28;20322;-75
2021/06/16 06:42:17;;;;;;;10.50;6.45;;;16.90;99.90;;;;;;5062382;28;20117;-73
2021/06/16 06:44:43;;;;;;;9.35;6.18;;;17.00;99.90;;;;;;5095718;28;20036;-75
2021/06/16 06:47:10;;;;;;;18.02;7.18;;;17.10;99.90;;;;;;5093242;28;20474;-74
2021/06/16 06:49:36;;;;;;;14.40;7.40;;;17.20;99.90;;;;;;5070291;28;20037;-76
2021/06/16 06:52:01;;;;;;;;;;;17.40;99.90;;;;;;5067021;28;20050;-74
2021/06/16 06:54:27;;;;;;;10.50;6.43;;;17.50;99.90;;;;;;5092672;28;20018;-76
2021/06/16 06:56:53;;;;;;;;;;;17.60;99.90;;;;;;5092720;28;20386;-72
2021/06/16 06:59:19;;;;;;;11.55;7.03;;;17.70;99.90;;;;;;5092798;28;19915;-75
2021/06/16 07:01:44;;;;;;;;;;;17.80;99.90;;;;;;5094302;28;20073;-76
2021/06/16 07:04:10;;;;;;;8.38;6.82;;;17.80;99.90;;;;;;5092793;28;20029;-75
2021/06/16 07:06:36;;;;;;;;;;;17.80;99.90;;;;;;5093618;28;20040;-76
2021/06/16 07:09:04;;;;;;;13.88;7.38;;;17.90;99.90;;;;;;5093042;28;19919;-73
2021/06/16 07:11:30;;;;;;;11.40;6.90;;;18.10;99.90;;;;;;5091631;28;20066;-78
2021/06/16 07:13:56;;;;;;;9.40;7.05;;;18.20;99.90;;;;;;5092979;28;20089;-74
2021/06/16 07:16:22;;;;;;;;;;;18.30;99.90;;;;;;5093088;28;20031;-73
2021/06/16 07:18:48;;;;;;;14.75;7.18;;;18.40;99.90;;;;;;5092573;28;20400;-74
2021/06/16 07:21:15;;;;;;;10.48;7.15;;;18.50;99.90;;;;;;5091900;28;20043;-77
2021/06/16 07:23:40;;;;;;;12.55;6.85;;;18.60;99.90;;;;;;5058153;28;20074;-75
2021/06/16 07:26:06;;;;;;;;;;;18.70;99.90;;;;;;5080377;28;20055;-74
2021/06/16 07:28:32;;;;;;;10.15;6.63;;;18.90;99.90;;;;;;5091876;28;19923;-73
2021/06/16 07:30:58;;;;;;;;;;;19.10;99.90;;;;;;5063571;28;20045;-75
2021/06/16 07:33:24;;;;;;;11.55;7.30;;;19.10;99.90;;;;;;5082692;28;20329;-76
2021/06/16 07:35:50;;;;;;;;;;;19.30;99.90;;;;;;5074785;28;20040;-76
2021/06/16 07:38:15;;;;;;;13.95;6.55;;;19.50;99.90;;;;;;5092444;28;20373;-75
2021/06/16 07:40:41;;;;;;;;;;;19.60;99.90;;;;;;5092522;28;20039;-75
2021/06/16 07:43:07;;;;;;;12.13;7.15;;;19.60;99.90;;;;;;5093001;28;19920;-72
2021/06/16 07:45:33;;;;;;;;;;;19.80;99.90;;;;;;5064573;28;20500;-76
2021/06/16 07:47:59;;;;;;;10.10;6.70;;;19.90;99.90;;;;;;5091371;28;19927;-76
2021/06/16 07:50:27;;;;;;;13.60;6.95;;;20.00;99.90;;;;;;5092026;28;20040;-72
2021/06/16 07:52:53;;;;;;;10.30;6.93;;;20.20;99.90;;;;;;5092502;28;20119;-74
2021/06/16 07:55:19;;;;;;;9.73;6.15;;;20.30;99.90;;;;;;5091579;28;20098;-76
2021/06/16 07:57:45;;;;;;;10.27;6.53;;;20.20;99.90;;;;;;5055935;28;20516;-73
2021/06/16 08:00:11;;;;;;;;;;;20.30;99.90;;;;;;5055860;28;20040;-77
2021/06/16 08:02:38;;;;;;;13.67;6.93;;;20.40;99.90;;;;;;5089609;28;20285;-74
2021/06/16 08:05:06;;;;;;;8.63;6.47;;;20.40;99.90;;;;;;5091478;28;20036;-75
2021/06/16 08:07:31;;;;;;;9.27;6.28;;;20.50;99.90;;;;;;5091320;28;20084;-75
2021/06/16 08:09:57;;;;;;;8.88;6.57;;;20.60;99.90;;;;;;5090936;28;20339;-74
2021/06/16 08:12:23;;;;;;;;;;;20.70;99.90;;;;;;5091859;28;20154;-74
2021/06/16 08:14:49;;;;;;;8.57;6.05;;;20.70;99.90;;;;;;5092232;28;19915;-74
2021/06/16 08:17:15;;;;;;;12.65;6.97;;;20.80;99.90;;;;;;5091698;28;20040;-74
2021/06/16 08:19:41;;;;;;;11.50;6.63;;;20.90;99.90;;;;;;5091296;28;20157;-74
2021/06/16 08:22:10;;;;;;;10.18;6.72;;;21.00;99.80;;;;;;5091262;28;20048;-78
2021/06/16 08:24:36;;;;;;;11.38;5.72;;;21.10;98.90;;;;;;5093251;28;20046;-72
2021/06/16 08:27:02;;;;;;;10.73;5.97;;;21.10;99.20;;;;;;5093306;28;20058;-76
2021/06/16 08:29:28;;;;;;;9.52;5.25;;;21.20;98.80;;;;;;5091421;28;20378;-74
2021/06/16 08:31:54;;;;;;;10.32;5.85;;;21.40;97.60;;;;;;5053878;28;20041;-73
2021/06/16 08:34:19;;;;;;;;;;;21.50;96.20;;;;;;5084203;28;20058;-75
2021/06/16 08:36:46;;;;;;;9.32;5.30;;;21.40;96.20;;;;;;5091483;28;19923;-75
2021/06/16 08:39:12;;;;;;;9.10;5.40;;;21.50;96.40;;;;;;5091197;28;20040;-76
2021/06/16 08:41:40;;;;;;;9.18;4.85;;;21.60;95.70;;;;;;5090471;28;20356;-74
2021/06/16 08:44:07;;;;;;;10.05;4.93;;;21.70;95.40;;;;;;5091300;28;20032;-73
2021/06/16 08:46:33;;;;;;;9.60;3.85;;;21.80;95.30;;;;;;5066108;28;20036;-75
2021/06/16 08:49:03;;;;;;;8.05;5.25;;;21.90;94.60;;;;;;5084386;28;20036;-78
2021/06/16 08:51:29;;;;;;;8.10;4.25;;;22.10;93.30;;;;;;5090962;28;20090;-77
2021/06/16 08:53:55;;;;;;;6.63;4.50;;;22.10;92.10;;;;;;5091538;28;20036;-77
2021/06/16 08:56:21;;;;;;;6.28;4.30;;;22.00;91.40;;;;;;5089878;28;20047;-77
2021/06/16 08:58:47;;;;;;;7.35;4.53;;;22.10;93.50;;;;;;5089876;28;20431;-76
2021/06/16 09:01:13;;;;;;;9.82;4.47;;;22.20;92.30;;;;;;5091414;28;20032;-76
2021/06/16 09:03:39;;;;;;;8.38;4.50;;;22.30;92.00;;;;;;5090828;28;20481;-75
2021/06/16 09:06:15;;;;;;;10.00;4.30;;;22.40;91.40;;;;;;5091153;28;20107;-77
2021/06/16 09:09:01;;;;;;;7.50;3.85;;;22.40;91.40;;;;;;5091028;28;20193;-77
2021/06/16 09:11:29;;;;;;;6.90;2.92;;;22.40;88.30;;;;;;5089684;28;20040;-77
2021/06/16 09:14:16;;;;;;;5.35;3.58;;;22.40;86.70;;;;;;5053599;28;20033;-74
2021/06/16 09:16:42;;;;;;;6.28;3.17;;;22.40;86.30;;;;;;5085981;28;20040;-75
2021/06/16 09:19:30;;;;;;;4.38;2.90;;;22.50;84.50;;;;;;5064888;28;20481;-74
2021/06/16 09:22:07;;;;;;;4.85;2.90;;;22.70;81.80;;;;;;5088746;28;20422;-73
2021/06/16 09:24:54;;;;;;;5.70;3.38;;;22.80;79.80;;;;;;5090134;28;20071;-74
2021/06/16 09:27:44;;;;;;;6.78;3.05;;;22.80;79.30;;;;;;5078860;28;20028;-73
2021/06/16 09:30:19;;;;;;;6.50;2.90;;;23.00;79.70;;;;;;5090627;28;20040;-76
2021/06/16 09:32:53;;;;;;;7.07;3.50;;;23.10;80.20;;;;;;5083055;28;20508;-73
2021/06/16 09:35:22;;;;;;;8.75;3.47;;;23.20;79.20;;;;;;5078045;28;20488;-74
2021/06/16 09:37:48;;;;;;;8.57;4.20;;;23.40;79.30;;;;;;5090813;28;20046;-74
2021/06/16 09:40:23;;;;;;;7.45;4.03;;;23.40;77.20;;;;;;5089186;28;20040;-73
2021/06/16 09:43:04;;;;;;;5.78;3.35;;;23.40;78.30;;;;;;5090431;28;20126;-75
2021/06/16 09:45:30;;;;;;;10.63;3.35;;;23.50;78.90;;;;;;5090091;28;20056;-73
2021/06/16 09:47:56;;;;;;;7.28;3.65;;;23.50;79.40;;;;;;5090405;28;20039;-74
2021/06/16 09:50:27;;;;;;;9.00;3.47;;;23.70;77.40;;;;;;5089548;28;20039;-74
2021/06/16 09:52:53;;;;;;;5.25;3.30;;;23.80;78.60;;;;;;5091510;28;20050;-75
2021/06/16 09:55:27;;;;;;;4.93;3.25;;;23.90;76.30;;;;;;5089199;28;20036;-73
2021/06/16 09:58:03;;;;;;;7.03;2.90;;;24.00;74.70;;;;;;5090525;28;20435;-76
2021/06/16 10:00:33;;;;;;;;;;;24.10;73.70;;;;;;5072240;28;20040;-75
2021/06/16 10:03:19;;;;;;;4.90;3.45;;;24.10;74.50;;;;;;5072721;28;19920;-76
2021/06/16 10:06:06;;;;;;;6.00;3.25;;;24.10;73.90;;;;;;5090181;28;20036;-74
2021/06/16 10:08:38;;;;;;;5.45;3.50;;;24.20;72.80;;;;;;5089896;28;20059;-76
2021/06/16 10:11:07;;;;;;;5.85;3.15;;;24.20;71.80;;;;;;5089478;28;20059;-76
2021/06/16 10:13:34;;;;;;;8.88;3.35;;;24.30;70.60;;;;;;5089908;28;20397;-75
2021/06/16 10:16:01;;;;;;;9.40;3.58;;;24.30;70.00;;;;;;5063721;28;20074;-73
2021/06/16 10:18:28;;;;;;;5.13;3.30;;;24.40;69.70;;;;;;5085155;28;20474;-75
2021/06/16 10:20:56;;;;;;;6.32;3.10;;;24.30;68.70;;;;;;5089562;28;20109;-74
2021/06/16 10:23:23;;;;;;;6.68;3.03;;;24.30;65.80;;;;;;5089241;28;20173;-76
2021/06/16 10:25:49;;;;;;;4.25;2.95;;;24.30;67.80;;;;;;5082364;28;20044;-73
2021/06/16 10:28:22;;;;;;;7.45;3.35;;;24.40;67.90;;;;;;5090177;28;20036;-73
2021/06/16 10:30:55;;;;;;;5.47;3.20;;;24.60;68.00;;;;;;5094815;28;20035;-74
2021/06/16 10:33:30;;;;;;;7.15;3.22;;;24.80;64.50;;;;;;5090009;28;20155;-73
2021/06/16 10:36:25;;;;;;;7.43;3.53;;;24.80;64.10;;;;;;5094601;28;20405;-75
2021/06/16 10:38:57;;;;;;;5.80;3.55;;;24.80;65.70;;;;;;5062581;28;20051;-74
2021/06/16 10:41:41;;;;;;;6.63;3.25;;;25.10;65.00;;;;;;5091861;28;20114;-76
2021/06/16 10:44:21;;;;;;;4.50;2.90;;;25.10;63.90;;;;;;5093753;28;20043;-73
2021/06/16 10:46:52;;;;;;;6.95;3.30;;;25.20;63.10;;;;;;5082114;28;20063;-75
2021/06/16 10:49:36;;;;;;;4.60;2.80;;;25.30;62.10;;;;;;5093651;28;20043;-77
2021/06/16 10:52:04;;;;;;;5.20;2.90;;;25.20;63.10;;;;;;5093163;28;20040;-74
2021/06/16 10:54:31;;;;;;;6.70;2.97;;;25.30;62.00;;;;;;5074726;28;20040;-74
2021/06/16 10:57:10;;;;;;;5.65;2.55;;;25.40;60.90;;;;;;5092675;28;20036;-73
2021/06/16 10:59:42;;;;;;;5.55;2.95;;;25.40;59.90;;;;;;5079754;28;20078;-75
2021/06/16 11:02:11;;;;;;;6.05;2.92;;;25.50;60.20;;;;;;5093201;28;20036;-75
2021/06/16 11:04:38;;;;;;;6.07;3.08;;;25.60;59.70;;;;;;5092658;28;20060;-73
2021/06/16 11:07:23;;;;;;;5.68;2.85;;;25.80;58.10;;;;;;5092911;28;20482;-75
2021/06/16 11:09:59;;;;;;;6.53;2.88;;;25.90;58.90;;;;;;5092683;28;20040;-71
2021/06/16 11:12:31;;;;;;;5.50;2.97;;;26.00;56.90;;;;;;5092880;28;20040;-74
2021/06/16 11:15:01;;;;;;;5.22;2.72;;;25.90;58.70;;;;;;5092792;28;20039;-75
2021/06/16 11:17:29;;;;;;;5.13;2.80;;;26.00;57.30;;;;;;5067355;28;20047;-76
2021/06/16 11:19:57;;;;;;;6.32;3.10;;;26.10;57.70;;;;;;5086898;28;20035;-76
2021/06/16 11:22:28;;;;;;;5.60;2.90;;;26.20;58.20;;;;;;5094852;28;20036;-76
2021/06/16 11:25:18;;;;;;;6.68;2.65;;;26.30;56.20;;;;;;5089583;28;20036;-76
2021/06/16 11:27:53;;;;;;;5.18;3.00;;;26.30;57.30;;;;;;5084453;28;20043;-76
2021/06/16 11:30:53;;;;;;;3.67;2.47;;;26.30;57.00;;;;;;5093655;28;20050;-73
2021/06/16 11:33:19;;;;;;;5.30;2.90;;;26.40;57.70;;;;;;5084040;28;20047;-75
2021/06/16 11:35:51;;;;;;;5.15;2.85;;;26.60;57.70;;;;;;5074005;28;20051;-73
2021/06/16 11:38:17;;;;;;;5.32;3.03;;;26.70;57.40;;;;;;5092817;28;20420;-73
2021/06/16 11:40:58;;;;;;;4.60;2.58;;;26.90;55.60;;;;;;5090996;28;20104;-76
2021/06/16 11:43:51;;;;;;;3.67;2.45;;;27.00;55.80;;;;;;5092691;28;20384;-75
2021/06/16 11:46:19;;;;;;;6.40;2.97;;;27.20;54.50;;;;;;5048468;28;20056;-73
2021/06/16 11:48:48;;;;;;;45.97;8.07;;;27.10;54.20;;;;;;5092101;28;20040;-75
2021/06/16 11:51:30;;;;;;;12.52;4.40;;;27.20;54.60;;;;;;5092256;28;20091;-73
2021/06/16 11:54:22;;;;;;;7.88;3.28;;;27.20;54.00;;;;;;5091585;28;20051;-76
2021/06/16 11:57:07;;;;;;;215.50;38.30;;;27.30;55.10;;;;;;5079624;28;20425;-74
2021/06/16 11:59:40;;;;;;;7.70;2.80;;;27.50;55.80;;;;;;5088379;28;20032;-75
2021/06/16 12:02:11;;;;;;;4.07;2.53;;;27.90;54.50;;;;;;5092348;28;20552;-76
2021/06/16 12:04:59;;;;;;;6.88;2.80;;;27.90;53.00;;;;;;5091788;28;20036;-75
2021/06/16 12:07:25;;;;;;;5.93;2.80;;;28.00;53.30;;;;;;5091666;28;20051;-77
2021/06/16 12:09:53;;;;;;;8.60;2.85;;;28.00;52.40;;;;;;5091002;28;20296;-74
2021/06/16 12:12:20;;;;;;;6.55;2.65;;;28.00;52.40;;;;;;5091543;28;20363;-74
2021/06/16 12:14:47;;;;;;;5.25;2.63;;;28.10;52.20;;;;;;5091790;28;20057;-76
2021/06/16 12:17:13;;;;;;;6.82;2.70;;;28.20;50.60;;;;;;5059074;28;20036;-77
2021/06/16 12:19:39;;;;;;;5.53;2.63;;;28.40;51.80;;;;;;5089008;28;20039;-74
2021/06/16 12:22:10;;;;;;;6.90;2.72;;;28.50;50.60;;;;;;5091101;28;20040;-75
2021/06/16 12:24:39;;;;;;;5.95;2.92;;;28.60;50.30;;;;;;5088443;28;20059;-74
2021/06/16 12:27:09;;;;;;;6.70;2.60;;;28.70;49.50;;;;;;5088958;28;20397;-72
2021/06/16 12:29:45;;;;;;;6.85;2.65;;;28.80;50.70;;;;;;5090813;28;20036;-76
2021/06/16 12:32:11;;;;;;;6.40;2.65;;;29.00;49.80;;;;;;5091623;28;20075;-76
2021/06/16 12:37:16;;;;;;;4.90;2.38;;;29.40;48.60;;;;;;5091107;28;20039;-76
2021/06/16 12:39:57;;;;;;;3.90;2.47;;;29.60;48.10;;;;;;5090737;28;20035;-76
2021/06/16 12:42:35;;;;;;;5.63;2.40;;;29.70;48.40;;;;;;5093082;28;20065;-76
2021/06/16 12:45:01;;;;;;;6.15;2.67;;;29.80;48.30;;;;;;5079265;28;20036;-74
2021/06/16 12:47:32;;;;;;;6.45;2.40;;;29.90;48.00;;;;;;5090443;28;20043;-74
2021/06/16 12:49:58;;;;;;;4.28;2.50;;;30.00;48.20;;;;;;5077953;28;20123;-74
2021/06/16 12:52:36;;;;;;;3.83;2.60;;;30.30;48.30;;;;;;5090863;28;20115;-73
2021/06/16 12:55:11;;;;;;;7.03;2.78;;;30.50;48.20;;;;;;5087848;28;20055;-76
2021/06/16 12:57:55;;;;;;;5.53;2.63;;;30.60;49.20;;;;;;5059257;28;20032;-74
2021/06/16 13:00:26;;;;;;;6.53;2.42;;;30.80;48.50;;;;;;5088674;28;20035;-74